sensor_id;sensor_type;location;lat;lon;timestamp;pressure;altitude;pressure_sealevel;temperature
24714;BMP280;12820;51.580;5.010;2023-12-04T00:00:39;101276.78;;;4.22
24714;BMP280;12820;51.580;5.010;2023-12-04T00:05:42;101262.72;;;4.24
24714;BMP280;12820;51.580;5.010;2023-12-04T00:10:45;101255.31;;;4.25
24714;BMP280;12820;51.580;5.010;2023-12-04T00:15:47;101252.78;;;4.24
24714;BMP280;12820;51.580;5.010;2023-12-04T00:20:49;101247.84;;;4.27
24714;BMP280;12820;51.580;5.010;2023-12-04T00:25:52;101243.72;;;4.27
24714;BMP280;12820;51.580;5.010;2023-12-04T00:30:54;101247.84;;;4.27
24714;BMP280;12820;51.580;5.010;2023-12-04T00:35:56;101222.97;;;4.27
24714;BMP280;12820;51.580;5.010;2023-12-04T00:40:58;101223.81;;;4.27
24714;BMP280;12820;51.580;5.010;2023-12-04T00:46:01;101211.38;;;4.27
24714;BMP280;12820;51.580;5.010;2023-12-04T00:51:04;101220.53;;;4.28
24714;BMP280;12820;51.580;5.010;2023-12-04T00:56:06;101212.25;;;4.29
24714;BMP280;12820;51.580;5.010;2023-12-04T01:01:08;101210.63;;;4.31
24714;BMP280;12820;51.580;5.010;2023-12-04T01:06:20;101210.63;;;4.31
24714;BMP280;12820;51.580;5.010;2023-12-04T01:11:23;101193.22;;;4.33
24714;BMP280;12820;51.580;5.010;2023-12-04T01:16:26;101182.50;;;4.35
24714;BMP280;12820;51.580;5.010;2023-12-04T01:21:28;101173.38;;;4.37
24714;BMP280;12820;51.580;5.010;2023-12-04T01:26:30;101187.50;;;4.38
24714;BMP280;12820;51.580;5.010;2023-12-04T01:31:32;101178.41;;;4.39
24714;BMP280;12820;51.580;5.010;2023-12-04T01:36:35;101175.09;;;4.40
24714;BMP280;12820;51.580;5.010;2023-12-04T01:41:37;101158.50;;;4.39
24714;BMP280;12820;51.580;5.010;2023-12-04T01:46:40;101158.53;;;4.40
24714;BMP280;12820;51.580;5.010;2023-12-04T01:51:44;101154.34;;;4.39
24714;BMP280;12820;51.580;5.010;2023-12-04T01:56:46;101155.19;;;4.40
24714;BMP280;12820;51.580;5.010;2023-12-04T02:01:49;101145.25;;;4.40
24714;BMP280;12820;51.580;5.010;2023-12-04T02:06:52;101134.47;;;4.39
24714;BMP280;12820;51.580;5.010;2023-12-04T02:11:54;101130.31;;;4.40
24714;BMP280;12820;51.580;5.010;2023-12-04T02:17:00;101125.31;;;4.38
24714;BMP280;12820;51.580;5.010;2023-12-04T02:22:04;101125.31;;;4.38
24714;BMP280;12820;51.580;5.010;2023-12-04T02:27:13;101109.53;;;4.36
24714;BMP280;12820;51.580;5.010;2023-12-04T02:32:18;101110.31;;;4.34
24714;BMP280;12820;51.580;5.010;2023-12-04T02:37:21;101096.22;;;4.34
24714;BMP280;12820;51.580;5.010;2023-12-04T02:42:24;101087.91;;;4.32
24714;BMP280;12820;51.580;5.010;2023-12-04T02:47:27;101079.59;;;4.30
24714;BMP280;12820;51.580;5.010;2023-12-04T02:52:29;101071.25;;;4.28
24714;BMP280;12820;51.580;5.010;2023-12-04T02:57:31;101064.59;;;4.27
24714;BMP280;12820;51.580;5.010;2023-12-04T03:02:34;101055.50;;;4.26
24714;BMP280;12820;51.580;5.010;2023-12-04T03:07:36;101045.50;;;4.25
24714;BMP280;12820;51.580;5.010;2023-12-04T03:12:38;101042.19;;;4.25
24714;BMP280;12820;51.580;5.010;2023-12-04T03:17:40;101034.69;;;4.22
24714;BMP280;12820;51.580;5.010;2023-12-04T03:22:43;101018.94;;;4.21
24714;BMP280;12820;51.580;5.010;2023-12-04T03:27:45;101017.25;;;4.20
24714;BMP280;12820;51.580;5.010;2023-12-04T03:32:47;101011.47;;;4.21
24714;BMP280;12820;51.580;5.010;2023-12-04T03:37:49;101000.66;;;4.19
24714;BMP280;12820;51.580;5.010;2023-12-04T03:42:51;101004.78;;;4.19
24714;BMP280;12820;51.580;5.010;2023-12-04T03:47:53;100985.69;;;4.18
24714;BMP280;12820;51.580;5.010;2023-12-04T03:52:56;100995.66;;;4.16
24714;BMP280;12820;51.580;5.010;2023-12-04T03:57:58;100993.16;;;4.16
24714;BMP280;12820;51.580;5.010;2023-12-04T04:03:01;100977.41;;;4.16
24714;BMP280;12820;51.580;5.010;2023-12-04T04:08:03;100969.94;;;4.16
24714;BMP280;12820;51.580;5.010;2023-12-04T04:13:07;100959.16;;;4.15
24714;BMP280;12820;51.580;5.010;2023-12-04T04:18:09;100952.50;;;4.14
24714;BMP280;12820;51.580;5.010;2023-12-04T04:23:11;100945.06;;;4.16
24714;BMP280;12820;51.580;5.010;2023-12-04T04:28:13;100941.78;;;4.17
24714;BMP280;12820;51.580;5.010;2023-12-04T04:33:16;100936.78;;;4.17
24714;BMP280;12820;51.580;5.010;2023-12-04T04:38:19;100924.34;;;4.18
24714;BMP280;12820;51.580;5.010;2023-12-04T04:43:21;100936.00;;;4.21
24714;BMP280;12820;51.580;5.010;2023-12-04T04:48:23;100926.91;;;4.23
24714;BMP280;12820;51.580;5.010;2023-12-04T04:53:26;100929.38;;;4.23
24714;BMP280;12820;51.580;5.010;2023-12-04T04:58:28;100923.59;;;4.24
24714;BMP280;12820;51.580;5.010;2023-12-04T05:03:31;100921.97;;;4.25
24714;BMP280;12820;51.580;5.010;2023-12-04T05:08:33;100909.53;;;4.27
24714;BMP280;12820;51.580;5.010;2023-12-04T05:13:35;100892.97;;;4.27
24714;BMP280;12820;51.580;5.010;2023-12-04T05:18:40;100875.59;;;4.30
24714;BMP280;12820;51.580;5.010;2023-12-04T05:23:42;100875.59;;;4.30
24714;BMP280;12820;51.580;5.010;2023-12-04T05:28:44;100874.00;;;4.35
24714;BMP280;12820;51.580;5.010;2023-12-04T05:33:48;100859.91;;;4.36
24714;BMP280;12820;51.580;5.010;2023-12-04T05:38:50;100859.06;;;4.37
24714;BMP280;12820;51.580;5.010;2023-12-04T05:43:52;100867.38;;;4.37
24714;BMP280;12820;51.580;5.010;2023-12-04T05:48:55;100858.28;;;4.39
24714;BMP280;12820;51.580;5.010;2023-12-04T05:53:57;100842.56;;;4.40
24714;BMP280;12820;51.580;5.010;2023-12-04T05:59:00;100849.22;;;4.44
24714;BMP280;12820;51.580;5.010;2023-12-04T06:04:02;100834.28;;;4.44
24714;BMP280;12820;51.580;5.010;2023-12-04T06:09:04;100828.50;;;4.45
24714;BMP280;12820;51.580;5.010;2023-12-04T06:14:07;100826.84;;;4.47
24714;BMP280;12820;51.580;5.010;2023-12-04T06:19:09;100826.06;;;4.51
24714;BMP280;12820;51.580;5.010;2023-12-04T06:24:12;100812.00;;;4.56
24714;BMP280;12820;51.580;5.010;2023-12-04T06:29:14;100804.56;;;4.57
24714;BMP280;12820;51.580;5.010;2023-12-04T06:34:16;100812.03;;;4.60
24714;BMP280;12820;51.580;5.010;2023-12-04T06:39:19;100816.19;;;4.61
24714;BMP280;12820;51.580;5.010;2023-12-04T06:44:21;100807.94;;;4.63
24714;BMP280;12820;51.580;5.010;2023-12-04T06:49:24;100798.00;;;4.66
24714;BMP280;12820;51.580;5.010;2023-12-04T06:54:27;100789.72;;;4.67
24714;BMP280;12820;51.580;5.010;2023-12-04T06:59:29;100781.44;;;4.68
24714;BMP280;12820;51.580;5.010;2023-12-04T07:04:31;100761.53;;;4.71
24714;BMP280;12820;51.580;5.010;2023-12-04T07:09:34;100758.22;;;4.72
24714;BMP280;12820;51.580;5.010;2023-12-04T07:14:36;100775.69;;;4.74
24714;BMP280;12820;51.580;5.010;2023-12-04T07:19:38;100761.59;;;4.74
24714;BMP280;12820;51.580;5.010;2023-12-04T07:24:42;100748.28;;;4.75
24714;BMP280;12820;51.580;5.010;2023-12-04T07:29:45;100738.34;;;4.75
24714;BMP280;12820;51.580;5.010;2023-12-04T07:34:47;100745.78;;;4.75
24714;BMP280;12820;51.580;5.010;2023-12-04T07:39:49;100748.28;;;4.75
24714;BMP280;12820;51.580;5.010;2023-12-04T07:44:52;100765.72;;;4.75
24714;BMP280;12820;51.580;5.010;2023-12-04T07:49:54;100752.44;;;4.75
24714;BMP280;12820;51.580;5.010;2023-12-04T07:54:56;100754.09;;;4.76
24714;BMP280;12820;51.580;5.010;2023-12-04T07:59:58;100758.25;;;4.77
24714;BMP280;12820;51.580;5.010;2023-12-04T08:05:01;100751.63;;;4.77
24714;BMP280;12820;51.580;5.010;2023-12-04T08:10:04;100729.22;;;4.77
24714;BMP280;12820;51.580;5.010;2023-12-04T08:15:06;100730.91;;;4.79
24714;BMP280;12820;51.580;5.010;2023-12-04T08:20:09;100728.44;;;4.82
24714;BMP280;12820;51.580;5.010;2023-12-04T08:25:25;100715.16;;;4.85
24714;BMP280;12820;51.580;5.010;2023-12-04T08:30:27;100719.34;;;4.86
24714;BMP280;12820;51.580;5.010;2023-12-04T08:35:29;100712.69;;;4.89
24714;BMP280;12820;51.580;5.010;2023-12-04T08:40:31;100705.25;;;4.94
24714;BMP280;12820;51.580;5.010;2023-12-04T08:45:33;100702.81;;;4.99
24714;BMP280;12820;51.580;5.010;2023-12-04T08:50:36;100687.91;;;5.05
24714;BMP280;12820;51.580;5.010;2023-12-04T08:55:40;100691.25;;;5.10
24714;BMP280;12820;51.580;5.010;2023-12-04T09:00:42;100688.78;;;5.13
24714;BMP280;12820;51.580;5.010;2023-12-04T09:05:45;100693.78;;;5.19
24714;BMP280;12820;51.580;5.010;2023-12-04T09:10:48;100688.00;;;5.24
24714;BMP280;12820;51.580;5.010;2023-12-04T09:16:10;100689.72;;;5.34
24714;BMP280;12820;51.580;5.010;2023-12-04T09:21:12;100693.09;;;5.40
24714;BMP280;12820;51.580;5.010;2023-12-04T09:26:14;100683.94;;;5.44
24714;BMP280;12820;51.580;5.010;2023-12-04T09:31:16;100686.47;;;5.49
24714;BMP280;12820;51.580;5.010;2023-12-04T09:36:18;100676.50;;;5.55
24714;BMP280;12820;51.580;5.010;2023-12-04T09:41:22;100677.34;;;5.62
24714;BMP280;12820;51.580;5.010;2023-12-04T09:46:24;100671.59;;;5.67
24714;BMP280;12820;51.580;5.010;2023-12-04T09:51:27;100666.59;;;5.74
24714;BMP280;12820;51.580;5.010;2023-12-04T09:56:30;100661.66;;;5.83
24714;BMP280;12820;51.580;5.010;2023-12-04T10:01:35;100654.19;;;5.92
24714;BMP280;12820;51.580;5.010;2023-12-04T10:06:38;100650.88;;;6.04
24714;BMP280;12820;51.580;5.010;2023-12-04T10:11:41;100636.75;;;6.14
24714;BMP280;12820;51.580;5.010;2023-12-04T10:16:44;100633.44;;;6.21
24714;BMP280;12820;51.580;5.010;2023-12-04T10:21:48;100618.44;;;6.29
24714;BMP280;12820;51.580;5.010;2023-12-04T10:26:50;100610.13;;;6.39
24714;BMP280;12820;51.580;5.010;2023-12-04T10:31:55;100604.28;;;6.47
24714;BMP280;12820;51.580;5.010;2023-12-04T10:37:02;100596.78;;;6.55
24714;BMP280;12820;51.580;5.010;2023-12-04T10:42:04;100580.94;;;6.60
24714;BMP280;12820;51.580;5.010;2023-12-04T10:47:06;100564.31;;;6.68
24714;BMP280;12820;51.580;5.010;2023-12-04T10:52:09;100569.25;;;6.76
24714;BMP280;12820;51.580;5.010;2023-12-04T10:57:16;100560.06;;;6.87
24714;BMP280;12820;51.580;5.010;2023-12-04T11:02:26;100551.72;;;6.91
24714;BMP280;12820;51.580;5.010;2023-12-04T11:07:30;100555.03;;;6.94
24714;BMP280;12820;51.580;5.010;2023-12-04T11:13:08;100544.19;;;7.00
24714;BMP280;12820;51.580;5.010;2023-12-04T11:18:14;100539.16;;;7.03
24714;BMP280;12820;51.580;5.010;2023-12-04T11:23:17;100542.53;;;7.02
24714;BMP280;12820;51.580;5.010;2023-12-04T11:28:20;100528.34;;;7.02
24714;BMP280;12820;51.580;5.010;2023-12-04T11:33:22;100510.03;;;7.05
24714;BMP280;12820;51.580;5.010;2023-12-04T11:38:24;100494.19;;;7.06
24714;BMP280;12820;51.580;5.010;2023-12-04T11:43:28;100478.34;;;7.09
24714;BMP280;12820;51.580;5.010;2023-12-04T11:48:31;100475.72;;;7.30
24714;BMP280;12820;51.580;5.010;2023-12-04T11:53:39;100462.25;;;7.48
24714;BMP280;12820;51.580;5.010;2023-12-04T11:58:43;100457.22;;;7.50
24714;BMP280;12820;51.580;5.010;2023-12-04T12:03:50;100443.13;;;7.45
24714;BMP280;12820;51.580;5.010;2023-12-04T12:08:55;100439.81;;;7.38
24714;BMP280;12820;51.580;5.010;2023-12-04T12:13:59;100429.06;;;7.29
24714;BMP280;12820;51.580;5.010;2023-12-04T12:19:01;100426.59;;;7.22
24714;BMP280;12820;51.580;5.010;2023-12-04T12:24:06;100401.66;;;7.17
24714;BMP280;12820;51.580;5.010;2023-12-04T12:29:10;100412.47;;;7.16
24714;BMP280;12820;51.580;5.010;2023-12-04T12:34:13;100396.69;;;7.13
24714;BMP280;12820;51.580;5.010;2023-12-04T12:39:16;100392.50;;;7.18
24714;BMP280;12820;51.580;5.010;2023-12-04T12:44:18;100392.50;;;7.21
24714;BMP280;12820;51.580;5.010;2023-12-04T12:49:20;100394.16;;;7.20
24714;BMP280;12820;51.580;5.010;2023-12-04T12:54:41;100373.38;;;7.14
24714;BMP280;12820;51.580;5.010;2023-12-04T12:59:43;100380.06;;;7.09
24714;BMP280;12820;51.580;5.010;2023-12-04T13:04:46;100364.28;;;7.03
24714;BMP280;12820;51.580;5.010;2023-12-04T13:09:49;100357.69;;;6.96
24714;BMP280;12820;51.580;5.010;2023-12-04T13:14:52;100352.75;;;6.90
24714;BMP280;12820;51.580;5.010;2023-12-04T13:19:54;100334.47;;;6.85
24714;BMP280;12820;51.580;5.010;2023-12-04T13:24:56;100329.50;;;6.79
24714;BMP280;12820;51.580;5.010;2023-12-04T13:29:59;100319.56;;;6.76
24714;BMP280;12820;51.580;5.010;2023-12-04T13:35:02;100312.09;;;6.72
24714;BMP280;12820;51.580;5.010;2023-12-04T13:40:06;100289.66;;;6.68
24714;BMP280;12820;51.580;5.010;2023-12-04T13:45:11;100289.66;;;6.65
24714;BMP280;12820;51.580;5.010;2023-12-04T13:50:15;100283.03;;;6.64
24714;BMP280;12820;51.580;5.010;2023-12-04T13:55:17;100283.88;;;6.63
24714;BMP280;12820;51.580;5.010;2023-12-04T14:00:31;100275.53;;;6.61
24714;BMP280;12820;51.580;5.010;2023-12-04T14:05:34;100266.41;;;6.63
24714;BMP280;12820;51.580;5.010;2023-12-04T14:10:37;100260.53;;;6.65
24714;BMP280;12820;51.580;5.010;2023-12-04T14:15:40;100259.75;;;6.62
24714;BMP280;12820;51.580;5.010;2023-12-04T14:20:42;100253.13;;;6.58
24714;BMP280;12820;51.580;5.010;2023-12-04T14:25:45;100249.81;;;6.50
24714;BMP280;12820;51.580;5.010;2023-12-04T14:30:47;100247.41;;;6.43
24714;BMP280;12820;51.580;5.010;2023-12-04T14:35:49;100238.31;;;6.35
24714;BMP280;12820;51.580;5.010;2023-12-04T14:40:51;100236.69;;;6.28
24714;BMP280;12820;51.580;5.010;2023-12-04T14:45:54;100226.78;;;6.19
24714;BMP280;12820;51.580;5.010;2023-12-04T14:50:57;100228.47;;;6.14
24714;BMP280;12820;51.580;5.010;2023-12-04T14:56:03;100224.38;;;6.06
24714;BMP280;12820;51.580;5.010;2023-12-04T15:01:14;100212.75;;;6.01
24714;BMP280;12820;51.580;5.010;2023-12-04T15:06:35;100221.94;;;5.96
24714;BMP280;12820;51.580;5.010;2023-12-04T15:12:04;100212.84;;;5.86
24714;BMP280;12820;51.580;5.010;2023-12-04T15:17:23;100202.06;;;5.81
24714;BMP280;12820;51.580;5.010;2023-12-04T15:22:46;100197.94;;;5.77
24714;BMP280;12820;51.580;5.010;2023-12-04T15:27:48;100198.78;;;5.73
24714;BMP280;12820;51.580;5.010;2023-12-04T15:32:51;100180.50;;;5.71
24714;BMP280;12820;51.580;5.010;2023-12-04T15:37:53;100168.88;;;5.73
24714;BMP280;12820;51.580;5.010;2023-12-04T15:42:56;100172.19;;;5.71
24714;BMP280;12820;51.580;5.010;2023-12-04T15:47:58;100164.72;;;5.74
24714;BMP280;12820;51.580;5.010;2023-12-04T15:53:01;100157.25;;;5.72
24714;BMP280;12820;51.580;5.010;2023-12-04T15:58:03;100158.91;;;5.70
24714;BMP280;12820;51.580;5.010;2023-12-04T16:03:06;100153.94;;;5.68
24714;BMP280;12820;51.580;5.010;2023-12-04T16:08:08;100139.81;;;5.64
24714;BMP280;12820;51.580;5.010;2023-12-04T16:13:10;100140.66;;;5.63
24714;BMP280;12820;51.580;5.010;2023-12-04T16:18:12;100134.84;;;5.61
24714;BMP280;12820;51.580;5.010;2023-12-04T16:23:15;100132.38;;;5.58
24714;BMP280;12820;51.580;5.010;2023-12-04T16:28:17;100133.19;;;5.55
24714;BMP280;12820;51.580;5.010;2023-12-04T16:33:19;100123.25;;;5.54
24714;BMP280;12820;51.580;5.010;2023-12-04T16:38:21;100122.44;;;5.52
24714;BMP280;12820;51.580;5.010;2023-12-04T16:43:23;100107.47;;;5.52
24714;BMP280;12820;51.580;5.010;2023-12-04T16:48:25;100111.66;;;5.50
24714;BMP280;12820;51.580;5.010;2023-12-04T16:53:28;100115.78;;;5.51
24714;BMP280;12820;51.580;5.010;2023-12-04T16:58:32;100101.69;;;5.49
24714;BMP280;12820;51.580;5.010;2023-12-04T17:03:35;100095.88;;;5.48
24714;BMP280;12820;51.580;5.010;2023-12-04T17:08:37;100089.25;;;5.49
24714;BMP280;12820;51.580;5.010;2023-12-04T17:13:40;100092.56;;;5.49
24714;BMP280;12820;51.580;5.010;2023-12-04T17:18:42;100080.94;;;5.49
24714;BMP280;12820;51.580;5.010;2023-12-04T17:23:44;100084.25;;;5.50
24714;BMP280;12820;51.580;5.010;2023-12-04T17:28:48;100074.28;;;5.50
24714;BMP280;12820;51.580;5.010;2023-12-04T17:33:50;100061.81;;;5.50
24714;BMP280;12820;51.580;5.010;2023-12-04T17:38:52;100067.63;;;5.52
24714;BMP280;12820;51.580;5.010;2023-12-04T17:43:55;100060.97;;;5.52
24714;BMP280;12820;51.580;5.010;2023-12-04T17:48:58;100060.97;;;5.54
24714;BMP280;12820;51.580;5.010;2023-12-04T17:54:01;100055.16;;;5.55
24714;BMP280;12820;51.580;5.010;2023-12-04T17:59:04;100047.66;;;5.56
24714;BMP280;12820;51.580;5.010;2023-12-04T18:04:06;100036.00;;;5.57
24714;BMP280;12820;51.580;5.010;2023-12-04T18:09:09;100031.03;;;5.58
24714;BMP280;12820;51.580;5.010;2023-12-04T18:14:13;100027.72;;;5.58
24714;BMP280;12820;51.580;5.010;2023-12-04T18:19:15;100029.38;;;5.59
24714;BMP280;12820;51.580;5.010;2023-12-04T18:24:17;100023.56;;;5.58
24714;BMP280;12820;51.580;5.010;2023-12-04T18:29:19;100013.59;;;5.58
24714;BMP280;12820;51.580;5.010;2023-12-04T18:34:22;100009.44;;;5.57
24714;BMP280;12820;51.580;5.010;2023-12-04T18:39:24;100011.09;;;5.57
24714;BMP280;12820;51.580;5.010;2023-12-04T18:44:28;100000.28;;;5.56
24714;BMP280;12820;51.580;5.010;2023-12-04T18:49:32;99989.50;;;5.56
24714;BMP280;12820;51.580;5.010;2023-12-04T18:54:36;99996.16;;;5.57
24714;BMP280;12820;51.580;5.010;2023-12-04T18:59:38;99998.63;;;5.55
24714;BMP280;12820;51.580;5.010;2023-12-04T19:04:40;99998.63;;;5.55
24714;BMP280;12820;51.580;5.010;2023-12-04T19:09:43;99991.19;;;5.54
24714;BMP280;12820;51.580;5.010;2023-12-04T19:14:45;99987.00;;;5.56
24714;BMP280;12820;51.580;5.010;2023-12-04T19:19:47;99981.16;;;5.63
24714;BMP280;12820;51.580;5.010;2023-12-04T19:24:50;99973.69;;;5.63
24714;BMP280;12820;51.580;5.010;2023-12-04T19:29:52;99975.34;;;5.61
24714;BMP280;12820;51.580;5.010;2023-12-04T19:34:54;99977.84;;;5.64
24714;BMP280;12820;51.580;5.010;2023-12-04T19:39:57;99975.34;;;5.65
24714;BMP280;12820;51.580;5.010;2023-12-04T19:44:59;99972.84;;;5.64
24714;BMP280;12820;51.580;5.010;2023-12-04T19:50:02;99956.22;;;5.63
24714;BMP280;12820;51.580;5.010;2023-12-04T19:55:04;99957.06;;;5.62
24714;BMP280;12820;51.580;5.010;2023-12-04T20:00:07;99947.09;;;5.62
24714;BMP280;12820;51.580;5.010;2023-12-04T20:05:13;99933.84;;;5.58
24714;BMP280;12820;51.580;5.010;2023-12-04T20:10:15;99947.13;;;5.59
24714;BMP280;12820;51.580;5.010;2023-12-04T20:15:19;99933.84;;;5.57
24714;BMP280;12820;51.580;5.010;2023-12-04T20:20:21;99934.69;;;5.56
24714;BMP280;12820;51.580;5.010;2023-12-04T20:25:23;99923.09;;;5.55
24714;BMP280;12820;51.580;5.010;2023-12-04T20:30:28;99928.88;;;5.55
24714;BMP280;12820;51.580;5.010;2023-12-04T20:35:32;99927.19;;;5.56
24714;BMP280;12820;51.580;5.010;2023-12-04T20:40:34;99921.38;;;5.55
24714;BMP280;12820;51.580;5.010;2023-12-04T20:45:36;99917.25;;;5.56
24714;BMP280;12820;51.580;5.010;2023-12-04T20:50:39;99919.72;;;5.56
24714;BMP280;12820;51.580;5.010;2023-12-04T20:55:43;99914.75;;;5.56
24714;BMP280;12820;51.580;5.010;2023-12-04T21:00:48;99907.28;;;5.56
24714;BMP280;12820;51.580;5.010;2023-12-04T21:05:50;99917.22;;;5.57
24714;BMP280;12820;51.580;5.010;2023-12-04T21:10:52;99917.22;;;5.59
24714;BMP280;12820;51.580;5.010;2023-12-04T21:15:54;99918.88;;;5.58
24714;BMP280;12820;51.580;5.010;2023-12-04T21:20:56;99910.53;;;5.61
24714;BMP280;12820;51.580;5.010;2023-12-04T21:25:58;99913.03;;;5.61
24714;BMP280;12820;51.580;5.010;2023-12-04T21:31:01;99912.22;;;5.62
24714;BMP280;12820;51.580;5.010;2023-12-04T21:36:07;99908.06;;;5.62
24714;BMP280;12820;51.580;5.010;2023-12-04T21:41:10;99901.41;;;5.63
24714;BMP280;12820;51.580;5.010;2023-12-04T21:46:12;99899.75;;;5.65
24714;BMP280;12820;51.580;5.010;2023-12-04T21:51:14;99894.75;;;5.65
24714;BMP280;12820;51.580;5.010;2023-12-04T21:56:16;99886.44;;;5.66
24714;BMP280;12820;51.580;5.010;2023-12-04T22:01:18;99886.44;;;5.66
24714;BMP280;12820;51.580;5.010;2023-12-04T22:06:20;99897.25;;;5.68
24714;BMP280;12820;51.580;5.010;2023-12-04T22:11:24;99884.78;;;5.68
24714;BMP280;12820;51.580;5.010;2023-12-04T22:16:26;99870.66;;;5.68
24714;BMP280;12820;51.580;5.010;2023-12-04T22:21:28;99873.09;;;5.69
24714;BMP280;12820;51.580;5.010;2023-12-04T22:26:30;99867.28;;;5.70
24714;BMP280;12820;51.580;5.010;2023-12-04T22:31:32;99866.47;;;5.71
24714;BMP280;12820;51.580;5.010;2023-12-04T22:36:34;99861.47;;;5.71
24714;BMP280;12820;51.580;5.010;2023-12-04T22:41:37;99860.63;;;5.72
24714;BMP280;12820;51.580;5.010;2023-12-04T22:46:39;99859.81;;;5.73
24714;BMP280;12820;51.580;5.010;2023-12-04T22:51:42;99857.31;;;5.73
24714;BMP280;12820;51.580;5.010;2023-12-04T22:56:44;99858.09;;;5.75
24714;BMP280;12820;51.580;5.010;2023-12-04T23:01:46;99866.41;;;5.76
24714;BMP280;12820;51.580;5.010;2023-12-04T23:06:49;99866.41;;;5.77
24714;BMP280;12820;51.580;5.010;2023-12-04T23:11:51;99858.88;;;5.79
24714;BMP280;12820;51.580;5.010;2023-12-04T23:16:53;99863.06;;;5.78
24714;BMP280;12820;51.580;5.010;2023-12-04T23:21:56;99868.03;;;5.80
24714;BMP280;12820;51.580;5.010;2023-12-04T23:26:59;99869.69;;;5.81
24714;BMP280;12820;51.580;5.010;2023-12-04T23:32:01;99873.00;;;5.83
24714;BMP280;12820;51.580;5.010;2023-12-04T23:37:04;99861.34;;;5.83
24714;BMP280;12820;51.580;5.010;2023-12-04T23:42:06;99867.97;;;5.84
24714;BMP280;12820;51.580;5.010;2023-12-04T23:47:09;99867.13;;;5.86
24714;BMP280;12820;51.580;5.010;2023-12-04T23:52:11;99858.00;;;5.87
24714;BMP280;12820;51.580;5.010;2023-12-04T23:57:13;99859.66;;;5.88
